Edgar, Nebraska
Current Conditions -  °F | °C
As of 4:15 PM on Thursday 27 Nov 2014 (Local Time) from KHJH Reporting Station
Clear Clear  
Wind Chill: 33°   Ceiling: Unl
Heat Index: 40°   Visibility: 10mi
Dew Point: 12°   Wind: 13mph
Humidity: 31%   Direction: 170°S
Pressure: 30.24"   Gusts: NA
Location:  40.37°N, 97.97°W
Report Text: KHJH 272215Z AUTO 17011KT 10SM CLR 05/M11 A3024 RMK AO2 T00451113
Loading
Personal Weather Stations






























Interactive Weather Map New forecast layout! Learn more

10-Day Weather Forecast

Advertisements
Track Severe Weather on mobile